Time;durP1;ratioP1;P1;durP2;ratioP2;P2;SDS_P1;SDS_P2;PMS_P1;PMS_P2;Temp;Humidity;BMP_temperature;BMP_pressure;BME280_temperature;BME280_humidity;BME280_pressure;Samples;Min_cycle;Max_cycle;Signal;HPM_P1;HPM_P2
2023/11/12 13:41:37;;;;;;;;;;;;;;;8.30;82.25;100237.41;3410305;27;19927;-67
2023/11/12 13:43:39;;;;;;;;;;;;;;;8.32;82.34;100231.88;4076455;29;20022;-67
2023/11/12 13:45:43;;;;;;;;;;;;;;;8.32;82.34;100233.72;4076961;29;20022;-67
2023/11/12 13:47:44;;;;;;;;;;;;;;;8.30;82.20;100233.91;4077405;29;20269;-66
2023/11/12 13:49:46;;;;;;;;;;;;;;;8.32;82.32;100236.41;4076369;29;20022;-68
2023/11/12 13:51:48;;;;;;;;;;;;;;;8.30;82.07;100234.72;4076837;29;20021;-67
2023/11/12 13:53:50;;;;;;;;;;;;;;;8.31;82.25;100235.59;4077110;29;20021;-67
2023/11/12 13:55:55;;;;;;;;;;;;;;;8.30;82.06;100232.03;4076011;29;20458;-67
2023/11/12 13:57:59;;;;;;;;;;;;;;;8.32;82.04;100253.38;4077261;29;20379;-67
2023/11/12 14:00:00;;;;;;;;;;;;;;;8.30;82.04;100240.09;4066501;29;20492;-67
2023/11/12 14:02:02;;;;;;;;;;;;;;;8.29;82.12;100242.97;4077316;29;19931;-66
2023/11/12 14:04:07;;;;;;;;;;;;;;;8.32;82.30;100249.88;4059302;29;20605;-67
2023/11/12 14:06:09;;;;;;;;;;;;;;;8.30;82.50;100240.09;4076891;29;20037;-66
2023/11/12 14:08:11;;;;;;;;;;;;;;;8.28;82.29;100242.16;4074267;29;20013;-66
2023/11/12 14:10:14;;;;;;;;;;;;;;;8.29;82.75;100251.91;4075907;29;20017;-67
2023/11/12 14:12:17;;;;;;;;;;;;;;;8.30;82.69;100248.19;4076723;29;20437;-68
2023/11/12 14:14:21;;;;;;;;;;;;;;;8.29;82.65;100256.44;4076301;29;20034;-68
2023/11/12 14:16:24;;;;;;;;;;;;;;;8.30;82.50;100239.28;4076503;29;20365;-68
2023/11/12 14:18:27;;;;;;;;;;;;;;;8.30;82.50;100253.56;4076279;29;20025;-67
2023/11/12 14:20:29;;;;;;;;;;;;;;;8.30;82.75;100256.25;4076716;29;20852;-67
2023/11/12 14:22:31;;;;;;;;;;;;;;;8.30;82.50;100253.56;4076267;29;20018;-69
2023/11/12 14:24:34;;;;;;;;;;;;;;;8.32;82.67;100253.38;4076263;29;19938;-69
2023/11/12 14:26:36;;;;;;;;;;;;;;;8.34;82.60;100250.53;4076609;29;20834;-68
2023/11/12 14:28:41;;;;;;;;;;;;;;;8.32;82.70;100253.38;4076549;29;20378;-69
2023/11/12 14:30:45;;;;;;;;;;;;;;;8.35;82.50;100254.91;4076568;29;20380;-67
2023/11/12 14:32:46;;;;;;;;;;;;;;;8.34;82.12;100259.47;4076631;29;20033;-68
2023/11/12 14:34:48;;;;;;;;;;;;;;;8.34;82.24;100256.78;4076283;29;20586;-68
2023/11/12 14:36:51;;;;;;;;;;;;;;;8.34;82.40;100262.16;4076732;29;20021;-69
2023/11/12 14:38:52;;;;;;;;;;;;;;;8.35;82.17;100260.28;4076182;29;20030;-68
2023/11/12 14:40:55;;;;;;;;;;;;;;;8.34;82.04;100258.59;4076561;29;20030;-69
2023/11/12 14:42:57;;;;;;;;;;;;;;;8.32;82.29;100261.47;4076209;29;20764;-68
2023/11/12 14:44:58;;;;;;;;;;;;;;;8.34;82.42;100258.59;4076693;29;20456;-68
2023/11/12 14:47:02;;;;;;;;;;;;;;;8.32;82.92;100266.00;4076259;29;19931;-67
2023/11/12 14:49:05;;;;;;;;;;;;;;;8.33;83.58;100267.69;4065213;29;20022;-67
2023/11/12 14:51:07;;;;;;;;;;;;;;;8.32;83.38;100266.00;4076160;29;20380;-68
2023/11/12 14:53:11;;;;;;;;;;;;;;;8.31;83.21;100270.56;4076359;29;20022;-67
2023/11/12 14:55:13;;;;;;;;;;;;;;;8.31;83.32;100270.56;4075933;29;20029;-68
2023/11/12 14:57:16;;;;;;;;;;;;;;;8.29;83.71;100269.88;4075747;29;20029;-69
2023/11/12 14:59:18;;;;;;;;;;;;;;;8.29;84.14;100264.50;4059416;29;20730;-67
2023/11/12 15:01:20;;;;;;;;;;;;;;;8.30;84.04;100276.94;4075333;29;21323;-68
2023/11/12 15:03:24;;;;;;;;;;;;;;;8.30;84.12;100271.56;4075708;29;20019;-67
2023/11/12 15:05:26;;;;;;;;;;;;;;;8.29;84.19;100273.44;4075694;29;19931;-67
2023/11/12 15:07:28;;;;;;;;;;;;;;;8.28;84.48;100274.44;4075742;29;20010;-67
2023/11/12 15:09:30;;;;;;;;;;;;;;;8.27;84.92;100267.38;4075640;29;20022;-68
2023/11/12 15:11:33;;;;;;;;;;;;;;;8.26;84.78;100279.16;4075322;29;20022;-68
2023/11/12 15:13:35;;;;;;;;;;;;;;;8.26;84.74;100276.47;4065903;29;19967;-69
2023/11/12 15:15:37;;;;;;;;;;;;;;;8.24;85.23;100272.25;4076199;29;20043;-69
2023/11/12 15:17:39;;;;;;;;;;;;;;;8.23;85.62;100282.19;4074857;29;20065;-69
2023/11/12 15:19:44;;;;;;;;;;;;;;;8.21;85.89;100268.09;4059193;29;20584;-69
2023/11/12 15:21:46;;;;;;;;;;;;;;;8.19;86.07;100275.47;4075252;29;20015;-68
2023/11/12 15:23:48;;;;;;;;;;;;;;;8.19;86.20;100270.09;4075718;29;20014;-67
2023/11/12 15:25:50;;;;;;;;;;;;;;;8.17;86.38;100276.69;4065195;29;20402;-67
2023/11/12 15:27:52;;;;;;;;;;;;;;;8.14;86.44;100272.47;4075405;29;20030;-68
2023/11/12 15:29:53;;;;;;;;;;;;;;;8.15;86.55;100276.00;4075561;29;20030;-68
2023/11/12 15:31:55;;;;;;;;;;;;;;;8.12;86.77;100275.31;4075708;29;19935;-68
2023/11/12 15:33:57;;;;;;;;;;;;;;;8.12;87.04;100269.94;4076028;29;20009;-68
2023/11/12 15:36:00;;;;;;;;;;;;;;;8.12;87.12;100277.19;4074889;29;19934;-68
2023/11/12 15:38:02;;;;;;;;;;;;;;;8.08;87.04;100276.66;4074902;29;20599;-69
2023/11/12 15:40:13;;;;;;;;;;;;;;;8.10;87.28;100282.75;4075114;29;20053;-67
2023/11/12 15:42:17;;;;;;;;;;;;;;;8.10;87.46;100284.56;4075050;29;20026;-69
2023/11/12 15:44:19;;;;;;;;;;;;;;;8.08;87.28;100284.75;4058101;29;20509;-68
2023/11/12 15:46:22;;;;;;;;;;;;;;;8.10;87.40;100288.13;4075058;29;20295;-68
2023/11/12 15:48:23;;;;;;;;;;;;;;;8.09;87.52;100291.81;4074975;29;20171;-68
2023/11/12 15:50:29;;;;;;;;;;;;;;;8.08;87.31;100294.66;4074562;29;20058;-67
2023/11/12 15:52:35;;;;;;;;;;;;;;;8.07;87.60;100293.84;4075238;29;20017;-70
2023/11/12 15:54:38;;;;;;;;;;;;;;;8.06;87.71;100294.00;4074660;29;20027;-68
2023/11/12 15:56:40;;;;;;;;;;;;;;;8.07;87.98;100292.97;4075157;29;20022;-67
2023/11/12 15:58:42;;;;;;;;;;;;;;;8.06;88.12;100302.91;4074938;29;20033;-67
2023/11/12 16:00:44;;;;;;;;;;;;;;;8.04;88.31;100299.56;4064420;29;20018;-69
2023/11/12 16:02:47;;;;;;;;;;;;;;;8.03;88.22;100297.03;4074994;29;20035;-68
2023/11/12 16:04:50;;;;;;;;;;;;;;;8.03;88.19;100297.03;4058738;29;20561;-67
2023/11/12 16:06:52;;;;;;;;;;;;;;;8.03;88.28;100313.19;4075102;29;20623;-69
2023/11/12 16:08:55;;;;;;;;;;;;;;;8.01;88.32;100310.66;4073841;29;20014;-68
2023/11/12 16:10:57;;;;;;;;;;;;;;;8.00;88.77;100319.72;4074477;29;20022;-69
2023/11/12 16:12:59;;;;;;;;;;;;;;;8.02;88.38;100314.19;4074215;29;20018;-69
2023/11/12 16:15:04;;;;;;;;;;;;;;;8.01;88.71;100321.41;4074502;29;20018;-67
2023/11/12 16:17:05;;;;;;;;;;;;;;;8.01;88.36;100318.72;4075494;29;20022;-69
2023/11/12 16:19:07;;;;;;;;;;;;;;;7.99;88.69;100319.91;4074453;29;19926;-68
2023/11/12 16:21:10;;;;;;;;;;;;;;;7.99;88.41;100320.72;4072001;29;20220;-68
2023/11/12 16:23:12;;;;;;;;;;;;;;;7.99;88.43;100325.28;4074472;29;20030;-69
2023/11/12 16:25:16;;;;;;;;;;;;;;;7.98;88.58;100331.66;4074519;29;20054;-70
2023/11/12 16:27:18;;;;;;;;;;;;;;;7.97;88.31;100325.44;4073804;29;20461;-67
2023/11/12 16:29:20;;;;;;;;;;;;;;;7.95;88.50;100327.47;4073949;29;20038;-68
2023/11/12 16:31:22;;;;;;;;;;;;;;;7.96;88.51;100326.44;4074800;29;20033;-69
2023/11/12 16:33:24;;;;;;;;;;;;;;;7.96;88.71;100337.22;4074363;29;20014;-68
2023/11/12 16:35:26;;;;;;;;;;;;;;;7.94;88.84;100342.75;4074023;29;20026;-69
2023/11/12 16:37:27;;;;;;;;;;;;;;;7.93;88.87;100342.91;4074320;29;20029;-68
2023/11/12 16:39:31;;;;;;;;;;;;;;;7.93;88.81;100342.91;4073748;29;20022;-68
2023/11/12 16:41:34;;;;;;;;;;;;;;;7.91;89.08;100340.41;4039883;29;20030;-68
2023/11/12 16:43:36;;;;;;;;;;;;;;;7.90;89.03;100338.75;4074155;29;20021;-68
2023/11/12 16:45:38;;;;;;;;;;;;;;;7.90;89.01;100336.06;4074067;29;20029;-68
2023/11/12 16:47:39;;;;;;;;;;;;;;;7.89;89.11;100338.91;4057279;29;19970;-68
2023/11/12 16:49:41;;;;;;;;;;;;;;;7.88;89.09;100337.22;4073818;29;19931;-68
2023/11/12 16:51:43;;;;;;;;;;;;;;;7.87;89.45;100331.00;4073899;29;20022;-69
2023/11/12 16:53:45;;;;;;;;;;;;;;;7.86;89.59;100341.94;4056817;29;20017;-68
2023/11/12 16:55:47;;;;;;;;;;;;;;;7.85;89.68;100343.78;4074243;29;20478;-67
2023/11/12 16:57:50;;;;;;;;;;;;;;;7.86;89.60;100344.63;4073679;29;20053;-68
2023/11/12 16:59:51;;;;;;;;;;;;;;;7.85;89.88;100342.94;4073873;29;20573;-68
2023/11/12 17:01:53;;;;;;;;;;;;;;;7.83;89.60;100343.09;4074835;29;20022;-68
2023/11/12 17:03:56;;;;;;;;;;;;;;;7.82;90.06;100341.44;4074299;29;20030;-68
2023/11/12 17:05:59;;;;;;;;;;;;;;;7.82;89.97;100345.97;4064191;29;20009;-68
2023/11/12 17:08:01;;;;;;;;;;;;;;;7.83;89.72;100350.34;4073656;29;19927;-68
2023/11/12 17:10:04;;;;;;;;;;;;;;;7.81;89.65;100339.75;4073676;29;20021;-70
2023/11/12 17:12:06;;;;;;;;;;;;;;;7.80;89.87;100354.19;4073729;29;20026;-69
2023/11/12 17:14:10;;;;;;;;;;;;;;;7.80;89.86;100343.44;4077910;29;20030;-69
2023/11/12 17:16:12;;;;;;;;;;;;;;;7.79;89.78;100349.84;4077378;29;20462;-68
2023/11/12 17:18:14;;;;;;;;;;;;;;;7.80;89.61;100350.69;4077132;29;20029;-68
2023/11/12 17:20:17;;;;;;;;;;;;;;;7.79;89.74;100351.69;4077590;29;20013;-67
2023/11/12 17:22:19;;;;;;;;;;;;;;;7.78;89.55;100353.53;4077515;29;20013;-67
2023/11/12 17:24:21;;;;;;;;;;;;;;;7.77;89.70;100349.16;4077416;29;20009;-66
2023/11/12 17:26:22;;;;;;;;;;;;;;;7.78;89.54;100350.84;4067006;29;20390;-69
2023/11/12 17:28:24;;;;;;;;;;;;;;;7.76;89.39;100348.31;4076797;29;20014;-67
2023/11/12 17:30:28;;;;;;;;;;;;;;;7.76;89.39;100350.19;4076506;29;20498;-67
2023/11/12 17:32:29;;;;;;;;;;;;;;;7.77;89.46;100354.53;4066612;29;20399;-68
2023/11/12 17:34:31;;;;;;;;;;;;;;;7.76;89.33;100347.50;4076756;29;19931;-68
2023/11/12 17:36:33;;;;;;;;;;;;;;;7.74;89.06;100349.50;4076676;29;20014;-68
2023/11/12 17:38:35;;;;;;;;;;;;;;;7.73;89.50;100347.81;4077248;29;20029;-69
2023/11/12 17:40:37;;;;;;;;;;;;;;;7.73;89.23;100339.75;4059650;29;20018;-68
2023/11/12 17:42:38;;;;;;;;;;;;;;;7.72;89.35;100344.28;4076548;29;20021;-67
2023/11/12 17:44:40;;;;;;;;;;;;;;;7.73;89.15;100348.66;4076830;29;20017;-69
2023/11/12 17:46:44;;;;;;;;;;;;;;;7.73;89.08;100353.22;4076637;29;20025;-67
2023/11/12 17:48:47;;;;;;;;;;;;;;;7.72;88.78;100346.13;4076699;29;20401;-69
2023/11/12 17:50:49;;;;;;;;;;;;;;;7.72;88.97;100356.88;4076413;29;20030;-68
2023/11/12 17:52:50;;;;;;;;;;;;;;;7.72;88.72;100360.41;4076424;29;20465;-68
2023/11/12 17:54:52;;;;;;;;;;;;;;;7.71;88.88;100358.75;4076812;29;20026;-67
2023/11/12 17:56:54;;;;;;;;;;;;;;;7.71;88.61;100363.25;4076690;29;19935;-67
2023/11/12 17:58:56;;;;;;;;;;;;;;;7.71;88.73;100365.94;4076230;29;20041;-67
2023/11/12 18:00:59;;;;;;;;;;;;;;;7.70;88.70;100372.34;4074880;29;20010;-67
2023/11/12 18:03:02;;;;;;;;;;;;;;;7.68;88.76;100372.53;4076019;29;20014;-68
2023/11/12 18:05:04;;;;;;;;;;;;;;;7.68;88.75;100387.78;4076206;29;20482;-70
2023/11/12 18:07:06;;;;;;;;;;;;;;;7.67;88.78;100397.72;4076420;29;20017;-70
2023/11/12 18:09:07;;;;;;;;;;;;;;;7.67;89.14;100386.13;4077788;29;20449;-67
2023/11/12 18:11:12;;;;;;;;;;;;;;;7.67;89.52;100381.59;4076403;29;19973;-68
2023/11/12 18:13:15;;;;;;;;;;;;;;;7.67;89.22;100373.53;4077371;29;20021;-67
2023/11/12 18:15:17;;;;;;;;;;;;;;;7.66;89.27;100373.69;4076554;29;20018;-69
2023/11/12 18:17:19;;;;;;;;;;;;;;;7.65;88.67;100369.31;4060056;29;20018;-67
2023/11/12 18:19:22;;;;;;;;;;;;;;;7.62;87.97;100372.31;4075423;29;20038;-70
2023/11/12 18:21:24;;;;;;;;;;;;;;;7.61;87.88;100374.19;4075173;29;20014;-70
2023/11/12 18:23:26;;;;;;;;;;;;;;;7.60;88.27;100372.50;4075286;29;20021;-67
2023/11/12 18:25:32;;;;;;;;;;;;;;;7.58;87.56;100371.81;4076230;29;20372;-68
2023/11/12 18:27:34;;;;;;;;;;;;;;;7.57;87.27;100372.84;4076610;29;20379;-68
2023/11/12 18:29:36;;;;;;;;;;;;;;;7.56;87.33;100368.47;4074941;29;19931;-68
2023/11/12 18:31:38;;;;;;;;;;;;;;;7.54;86.83;100371.34;4076499;29;20006;-69
2023/11/12 18:33:41;;;;;;;;;;;;;;;7.54;86.60;100374.03;4075986;29;20041;-68
2023/11/12 18:35:44;;;;;;;;;;;;;;;7.56;86.65;100373.84;4059075;29;20485;-69
2023/11/12 18:37:46;;;;;;;;;;;;;;;7.55;87.01;100381.09;4058929;29;20022;-67
2023/11/12 18:39:48;;;;;;;;;;;;;;;7.53;87.07;100377.69;4075258;29;20034;-68
2023/11/12 18:41:50;;;;;;;;;;;;;;;7.54;87.49;100387.47;4074742;29;20017;-67
2023/11/12 18:43:59;;;;;;;;;;;;;;;7.54;87.52;100376.72;4075962;29;19931;-68
2023/11/12 18:46:03;;;;;;;;;;;;;;;7.54;87.69;100375.88;4076636;29;20021;-67
2023/11/12 18:48:07;;;;;;;;;;;;;;;7.49;87.91;100370.13;4076533;29;20029;-66
2023/11/12 18:50:10;;;;;;;;;;;;;;;7.53;87.92;100380.38;4075479;29;19938;-68
2023/11/12 18:52:14;;;;;;;;;;;;;;;7.52;88.26;100384.09;4075748;29;20021;-68
2023/11/12 18:54:17;;;;;;;;;;;;;;;7.52;88.42;100381.41;4075916;29;20034;-69
2023/11/12 18:56:19;;;;;;;;;;;;;;;7.53;88.36;100384.94;4076477;29;20429;-68
2023/11/12 18:58:21;;;;;;;;;;;;;;;7.53;88.47;100383.06;4076071;29;20073;-68
2023/11/12 19:00:24;;;;;;;;;;;;;;;7.53;88.44;100383.06;4074997;29;20033;-68
2023/11/12 19:02:26;;;;;;;;;;;;;;;7.53;88.33;100383.06;4075717;29;20018;-68
2023/11/12 19:04:29;;;;;;;;;;;;;;;7.52;88.69;100384.09;4076248;29;20030;-69
2023/11/12 19:06:36;;;;;;;;;;;;;;;7.51;88.66;100385.09;4063794;29;20455;-69
2023/11/12 19:08:39;;;;;;;;;;;;;;;7.51;88.89;100384.28;4075953;29;19927;-70
2023/11/12 19:10:41;;;;;;;;;;;;;;;7.50;88.91;100394.16;4074704;29;19927;-70
2023/11/12 19:12:43;;;;;;;;;;;;;;;7.49;88.72;100395.19;4074898;29;20021;-68
2023/11/12 19:14:47;;;;;;;;;;;;;;;7.50;88.77;100390.63;4075532;29;20053;-69
2023/11/12 19:16:49;;;;;;;;;;;;;;;7.49;88.47;100397.88;4075277;29;20010;-69
2023/11/12 19:18:51;;;;;;;;;;;;;;;7.48;88.38;100389.97;4075714;29;20377;-69
2023/11/12 19:20:53;;;;;;;;;;;;;;;7.48;88.59;100392.66;4074627;29;20018;-67
2023/11/12 19:22:55;;;;;;;;;;;;;;;7.47;88.57;100391.78;4075702;29;20017;-66
2023/11/12 19:24:57;;;;;;;;;;;;;;;7.45;88.67;100384.94;4075500;29;20077;-66
2023/11/12 19:27:00;;;;;;;;;;;;;;;7.45;88.40;100383.06;4075813;29;20017;-68
2023/11/12 19:29:02;;;;;;;;;;;;;;;7.44;88.64;100389.44;4074244;29;20544;-66
2023/11/12 19:31:04;;;;;;;;;;;;;;;7.44;88.18;100384.06;4075366;29;19938;-66
2023/11/12 19:33:07;;;;;;;;;;;;;;;7.43;88.12;100381.53;4075394;29;20013;-67
2023/11/12 19:35:09;;;;;;;;;;;;;;;7.42;87.94;100383.41;4076200;29;20370;-66
2023/11/12 19:37:12;;;;;;;;;;;;;;;7.42;87.89;100380.72;4076006;29;20384;-66
2023/11/12 19:39:14;;;;;;;;;;;;;;;7.41;87.61;100384.41;4076647;29;20377;-67
2023/11/12 19:41:17;;;;;;;;;;;;;;;7.38;87.78;100380.22;4076008;29;20377;-67
2023/11/12 19:43:20;;;;;;;;;;;;;;;7.36;87.74;100378.69;4076299;29;20314;-67
2023/11/12 19:45:22;;;;;;;;;;;;;;;7.33;87.87;100376.31;4059587;29;20085;-69
2023/11/12 19:47:25;;;;;;;;;;;;;;;7.32;87.71;100371.94;4075040;29;20014;-66
2023/11/12 19:49:27;;;;;;;;;;;;;;;7.30;87.99;100373.97;4076007;29;20022;-67
2023/11/12 19:51:29;;;;;;;;;;;;;;;7.28;87.86;100381.38;4077082;29;19927;-67
2023/11/12 19:53:31;;;;;;;;;;;;;;;7.26;87.76;100381.53;4077373;29;20029;-66
2023/11/12 19:55:33;;;;;;;;;;;;;;;7.24;87.92;100385.38;4075936;29;20373;-67
2023/11/12 19:57:39;;;;;;;;;;;;;;;7.24;87.78;100382.69;4076146;29;20010;-67
2023/11/12 19:59:42;;;;;;;;;;;;;;;7.20;87.77;100385.69;4076400;29;20481;-67
2023/11/12 20:01:44;;;;;;;;;;;;;;;7.19;87.42;100386.72;4074738;29;20396;-67
2023/11/12 20:03:46;;;;;;;;;;;;;;;7.16;87.36;100388.88;4075956;29;20454;-68
2023/11/12 20:05:48;;;;;;;;;;;;;;;7.15;87.47;100387.22;4075524;29;20026;-67
2023/11/12 20:07:50;;;;;;;;;;;;;;;7.12;87.32;100399.09;4074750;29;20707;-68
2023/11/12 20:09:55;;;;;;;;;;;;;;;7.10;87.63;100403.81;4075185;29;20458;-69
2023/11/12 20:11:57;;;;;;;;;;;;;;;7.10;87.56;100405.63;4075335;29;20406;-70
2023/11/12 20:14:02;;;;;;;;;;;;;;;7.08;87.31;100403.13;4075605;29;20453;-70
2023/11/12 20:16:05;;;;;;;;;;;;;;;7.06;87.33;100405.13;4075588;29;20014;-69
2023/11/12 20:18:09;;;;;;;;;;;;;;;7.04;87.28;100404.47;4075170;29;20009;-69
2023/11/12 20:20:12;;;;;;;;;;;;;;;7.01;87.49;100397.56;4065115;29;20088;-69
2023/11/12 20:22:17;;;;;;;;;;;;;;;7.01;87.28;100410.16;4073480;29;20037;-67
2023/11/12 20:24:19;;;;;;;;;;;;;;;6.99;87.39;100412.13;4073593;29;20034;-68
2023/11/12 20:26:21;;;;;;;;;;;;;;;6.95;87.27;100413.47;4074654;29;20065;-70
2023/11/12 20:28:23;;;;;;;;;;;;;;;6.92;87.23;100420.00;4075866;29;20434;-67
2023/11/12 20:30:28;;;;;;;;;;;;;;;6.88;86.94;100418.66;4075024;29;20471;-69
2023/11/12 20:32:30;;;;;;;;;;;;;;;6.85;87.34;100421.66;4073071;29;19983;-69
2023/11/12 20:34:32;;;;;;;;;;;;;;;6.82;87.21;100422.81;4074766;29;20025;-69
2023/11/12 20:36:34;;;;;;;;;;;;;;;6.80;87.00;100424.84;4073863;29;20669;-69
2023/11/12 20:38:38;;;;;;;;;;;;;;;6.76;87.30;100423.47;4075693;29;20013;-68
2023/11/12 20:40:40;;;;;;;;;;;;;;;6.74;87.42;100428.16;4063830;29;20376;-68
2023/11/12 20:42:42;;;;;;;;;;;;;;;6.72;87.21;100418.56;4074706;29;20014;-73
2023/11/12 20:44:46;;;;;;;;;;;;;;;6.67;87.15;100422.56;4075379;29;20034;-69
2023/11/12 20:46:49;;;;;;;;;;;;;;;6.64;87.31;100435.47;4074775;29;20021;-71
2023/11/12 20:48:56;;;;;;;;;;;;;;;6.60;87.71;100443.00;4075419;29;20014;-68
2023/11/12 20:50:58;;;;;;;;;;;;;;;6.58;87.87;100446.84;4075706;29;20473;-68
2023/11/12 20:53:00;;;;;;;;;;;;;;;6.54;87.81;100432.91;4074452;29;19975;-69
2023/11/12 20:55:02;;;;;;;;;;;;;;;6.53;87.83;100439.25;4074734;29;20034;-69
2023/11/12 20:57:05;;;;;;;;;;;;;;;6.50;87.72;100447.63;4074066;29;20018;-71
2023/11/12 20:59:10;;;;;;;;;;;;;;;6.47;87.59;100446.13;4075734;29;20039;-68
2023/11/12 21:01:12;;;;;;;;;;;;;;;6.44;87.91;100438.38;4074333;29;20029;-69
2023/11/12 21:03:16;;;;;;;;;;;;;;;6.42;87.90;100443.03;4074552;29;20026;-69
2023/11/12 21:05:19;;;;;;;;;;;;;;;6.39;87.80;100445.19;4073613;29;20022;-70
2023/11/12 21:07:23;;;;;;;;;;;;;;;6.35;87.40;100452.72;4062784;29;20017;-69
2023/11/12 21:09:26;;;;;;;;;;;;;;;6.31;87.60;100456.72;4074522;29;20014;-68
2023/11/12 21:11:28;;;;;;;;;;;;;;;6.27;87.69;100453.50;4074049;29;20018;-68
2023/11/12 21:13:29;;;;;;;;;;;;;;;6.24;87.71;100451.13;4073253;29;19927;-69
2023/11/12 21:15:32;;;;;;;;;;;;;;;6.22;87.83;100458.50;4074167;29;19934;-69
2023/11/12 21:17:34;;;;;;;;;;;;;;;6.23;88.03;100454.81;4074504;29;20045;-68
2023/11/12 21:19:37;;;;;;;;;;;;;;;6.21;88.10;100455.97;4074916;29;20014;-68
2023/11/12 21:21:39;;;;;;;;;;;;;;;6.19;87.94;100449.91;4074064;29;20034;-69
2023/11/12 21:23:43;;;;;;;;;;;;;;;6.16;88.13;100447.53;4074962;29;20021;-69
2023/11/12 21:25:45;;;;;;;;;;;;;;;6.13;88.05;100454.06;4073948;29;20010;-69
2023/11/12 21:27:47;;;;;;;;;;;;;;;6.09;88.20;100450.84;4074475;29;20457;-69
2023/11/12 21:29:50;;;;;;;;;;;;;;;6.08;88.42;100454.53;4074189;29;20005;-68
2023/11/12 21:31:53;;;;;;;;;;;;;;;6.07;88.55;100454.69;4074001;29;20121;-68
2023/11/12 21:33:55;;;;;;;;;;;;;;;6.06;88.46;100458.34;4074040;29;19990;-68
2023/11/12 21:35:59;;;;;;;;;;;;;;;6.04;88.53;100461.19;4074136;29;20030;-69
2023/11/12 21:38:01;;;;;;;;;;;;;;;6.02;88.73;100462.34;4074442;29;20029;-68
2023/11/12 21:40:03;;;;;;;;;;;;;;;6.01;89.03;100458.81;4074087;29;20018;-68
2023/11/12 21:42:06;;;;;;;;;;;;;;;6.01;88.85;100458.00;4074081;29;20017;-69
2023/11/12 21:44:08;;;;;;;;;;;;;;;5.98;89.29;100455.63;4073602;29;20022;-68
2023/11/12 21:46:14;;;;;;;;;;;;;;;6.00;89.28;100472.38;4073093;29;20358;-67
2023/11/12 21:48:19;;;;;;;;;;;;;;;6.00;89.50;100464.34;4074215;29;20030;-68
2023/11/12 21:50:24;;;;;;;;;;;;;;;6.00;89.50;100465.16;4073364;29;20027;-68
2023/11/12 21:52:27;;;;;;;;;;;;;;;5.99;90.00;100466.19;4072923;29;20022;-70
2023/11/12 21:54:29;;;;;;;;;;;;;;;6.00;90.08;100470.53;4074199;29;19934;-68
2023/11/12 21:56:31;;;;;;;;;;;;;;;6.01;89.96;100471.38;4074055;29;20018;-67
2023/11/12 21:58:35;;;;;;;;;;;;;;;6.01;89.82;100471.38;4074519;29;20026;-68
2023/11/12 22:00:37;;;;;;;;;;;;;;;6.01;89.90;100461.50;4077146;29;20018;-69
2023/11/12 22:02:39;;;;;;;;;;;;;;;6.01;89.84;100458.00;4057291;29;20490;-68
2023/11/12 22:04:41;;;;;;;;;;;;;;;6.02;90.09;100460.50;4075958;29;20026;-68
2023/11/12 22:06:43;;;;;;;;;;;;;;;6.02;90.07;100465.00;4076305;29;20014;-69
2023/11/12 22:08:47;;;;;;;;;;;;;;;6.02;89.64;100457.84;4076132;29;20017;-70
2023/11/12 22:10:49;;;;;;;;;;;;;;;6.02;89.82;100465.00;4076063;29;20025;-68
2023/11/12 22:12:51;;;;;;;;;;;;;;;6.05;89.98;100462.88;4058939;29;20030;-68
2023/11/12 22:14:53;;;;;;;;;;;;;;;6.05;90.28;100457.53;4076412;29;20738;-69
2023/11/12 22:17:01;;;;;;;;;;;;;;;6.07;90.29;100460.88;4076257;29;20041;-67
2023/11/12 22:19:06;;;;;;;;;;;;;;;6.06;90.05;100469.09;4075788;29;19950;-69
2023/11/12 22:21:08;;;;;;;;;;;;;;;6.05;90.03;100470.06;4076037;29;20037;-68
2023/11/12 22:23:11;;;;;;;;;;;;;;;6.05;90.15;100467.38;4075787;29;20536;-69
2023/11/12 22:25:14;;;;;;;;;;;;;;;6.05;89.95;100475.44;4076444;29;20454;-70
2023/11/12 22:27:16;;;;;;;;;;;;;;;6.05;89.91;100470.06;4076305;29;20030;-69
2023/11/12 22:29:18;;;;;;;;;;;;;;;6.05;89.71;100468.25;4076433;29;20350;-70
2023/11/12 22:31:20;;;;;;;;;;;;;;;6.04;90.11;100471.91;4075373;29;20979;-68
2023/11/12 22:33:22;;;;;;;;;;;;;;;6.03;89.78;100467.53;4057615;29;20026;-69
2023/11/12 22:35:23;;;;;;;;;;;;;;;6.03;90.06;100464.84;4075978;29;20359;-69
2023/11/12 22:37:25;;;;;;;;;;;;;;;6.04;90.10;100463.88;4075959;29;20512;-71
2023/11/12 22:39:27;;;;;;;;;;;;;;;6.05;89.72;100462.03;4076017;29;20033;-70
2023/11/12 22:41:31;;;;;;;;;;;;;;;6.05;89.74;100470.06;4074796;29;20033;-70
2023/11/12 22:43:33;;;;;;;;;;;;;;;6.04;89.60;100469.22;4076743;29;20030;-69
2023/11/12 22:45:36;;;;;;;;;;;;;;;6.07;89.67;100458.19;4076225;29;20033;-69
2023/11/12 22:47:37;;;;;;;;;;;;;;;6.09;89.73;100468.78;4075967;29;20382;-72
2023/11/12 22:49:39;;;;;;;;;;;;;;;6.09;89.60;100479.50;4075861;29;20481;-70
2023/11/12 22:51:41;;;;;;;;;;;;;;;6.10;89.59;100478.50;4076350;29;20110;-68
2023/11/12 22:53:43;;;;;;;;;;;;;;;6.10;89.76;100484.72;4075774;29;20021;-69
2023/11/12 22:55:45;;;;;;;;;;;;;;;6.13;89.51;100484.41;4075841;29;19934;-70
2023/11/12 22:57:50;;;;;;;;;;;;;;;6.13;88.99;100492.44;4076236;29;20017;-69
2023/11/12 22:59:51;;;;;;;;;;;;;;;6.14;88.78;100487.91;4075919;29;20100;-70
2023/11/12 23:01:53;;;;;;;;;;;;;;;6.15;88.65;100496.81;4065256;29;20018;-69
2023/11/12 23:03:55;;;;;;;;;;;;;;;6.15;88.78;100496.81;4075281;29;20026;-69
2023/11/12 23:05:57;;;;;;;;;;;;;;;6.15;88.86;100491.47;4075624;29;20029;-69
2023/11/12 23:08:00;;;;;;;;;;;;;;;6.13;88.93;100497.81;4075788;29;20014;-68
2023/11/12 23:10:06;;;;;;;;;;;;;;;6.14;88.82;100487.91;4074624;29;20458;-69
2023/11/12 23:12:08;;;;;;;;;;;;;;;6.13;88.66;100495.13;4075487;29;20038;-69
2023/11/12 23:14:12;;;;;;;;;;;;;;;6.15;88.83;100494.13;4075908;29;20026;-70
2023/11/12 23:16:14;;;;;;;;;;;;;;;6.14;88.96;100498.63;4075412;29;19927;-70
2023/11/12 23:18:19;;;;;;;;;;;;;;;6.14;88.85;100501.31;4075378;29;20029;-69
2023/11/12 23:20:22;;;;;;;;;;;;;;;6.15;88.85;100494.97;4059673;29;20423;-68
2023/11/12 23:22:24;;;;;;;;;;;;;;;6.13;88.69;100495.13;4065617;29;20021;-69
2023/11/12 23:24:26;;;;;;;;;;;;;;;6.15;88.78;100496.81;4075178;29;20042;-69
2023/11/12 23:26:28;;;;;;;;;;;;;;;6.14;88.82;100495.97;4074996;29;20025;-67
2023/11/12 23:28:34;;;;;;;;;;;;;;;6.14;88.67;100490.59;4075189;29;20029;-68
2023/11/12 23:30:41;;;;;;;;;;;;;;;6.13;88.86;100488.94;4056694;29;19931;-69
2023/11/12 23:32:48;;;;;;;;;;;;;;;6.11;89.37;100494.44;4064796;29;20386;-68
2023/11/12 23:34:52;;;;;;;;;;;;;;;6.12;89.35;100492.59;4057526;29;20009;-68
2023/11/12 23:37:00;;;;;;;;;;;;;;;6.12;89.28;100503.31;4043068;29;20001;-68
2023/11/12 23:39:03;;;;;;;;;;;;;;;6.11;89.32;100493.59;4064513;29;19927;-68
2023/11/12 23:41:08;;;;;;;;;;;;;;;6.11;89.21;100496.25;4074507;29;20441;-68
2023/11/12 23:43:14;;;;;;;;;;;;;;;6.11;89.40;100501.63;4049485;29;19964;-68
2023/11/12 23:45:17;;;;;;;;;;;;;;;6.10;89.32;100498.13;4075644;29;19935;-68
2023/11/12 23:47:40;;;;;;;;;;;;;;;6.10;89.53;100492.75;4064946;29;19959;-69
2023/11/12 23:50:03;;;;;;;;;;;;;;;6.09;89.56;100495.59;4074166;29;19937;-68
2023/11/12 23:52:08;;;;;;;;;;;;;;;6.08;89.60;100500.13;4080341;29;20033;-69
2023/11/12 23:54:12;;;;;;;;;;;;;;;6.09;89.50;100509.00;4073023;29;19938;-68
2023/11/12 23:56:25;;;;;;;;;;;;;;;6.09;89.39;100509.81;4080565;29;20333;-68
2023/11/12 23:58:30;;;;;;;;;;;;;;;6.08;89.51;100516.19;4074826;29;19931;-69
